sensor_id;sensor_type;location;lat;lon;timestamp;P1;durP1;ratioP1;P2;durP2;ratioP2
40501;SDS011;29631;49.168;9.848;2023-03-17T00:01:12;3.10;;;2.90;;
40501;SDS011;29631;49.168;9.848;2023-03-17T00:03:41;2.63;;;2.42;;
40501;SDS011;29631;49.168;9.848;2023-03-17T00:06:16;2.92;;;2.60;;
40501;SDS011;29631;49.168;9.848;2023-03-17T00:08:51;3.08;;;2.88;;
40501;SDS011;29631;49.168;9.848;2023-03-17T00:11:17;3.90;;;3.13;;
40501;SDS011;29631;49.168;9.848;2023-03-17T00:13:44;3.08;;;2.92;;
40501;SDS011;29631;49.168;9.848;2023-03-17T00:16:17;2.60;;;2.50;;
40501;SDS011;29631;49.168;9.848;2023-03-17T00:18:47;2.88;;;2.67;;
40501;SDS011;29631;49.168;9.848;2023-03-17T00:21:15;2.58;;;2.40;;
40501;SDS011;29631;49.168;9.848;2023-03-17T00:23:49;2.88;;;2.67;;
40501;SDS011;29631;49.168;9.848;2023-03-17T00:26:16;3.10;;;2.90;;
40501;SDS011;29631;49.168;9.848;2023-03-17T00:28:43;3.20;;;3.00;;
40501;SDS011;29631;49.168;9.848;2023-03-17T00:31:13;3.00;;;2.80;;
40501;SDS011;29631;49.168;9.848;2023-03-17T00:33:45;2.95;;;2.75;;
40501;SDS011;29631;49.168;9.848;2023-03-17T00:36:13;3.25;;;3.00;;
40501;SDS011;29631;49.168;9.848;2023-03-17T00:38:49;3.00;;;2.80;;
40501;SDS011;29631;49.168;9.848;2023-03-17T00:41:16;4.65;;;2.83;;
40501;SDS011;29631;49.168;9.848;2023-03-17T00:43:42;3.10;;;2.90;;
40501;SDS011;29631;49.168;9.848;2023-03-17T00:46:15;2.97;;;2.72;;
40501;SDS011;29631;49.168;9.848;2023-03-17T00:48:47;2.97;;;2.78;;
40501;SDS011;29631;49.168;9.848;2023-03-17T00:51:13;2.70;;;2.50;;
40501;SDS011;29631;49.168;9.848;2023-03-17T00:53:40;3.67;;;3.22;;
40501;SDS011;29631;49.168;9.848;2023-03-17T00:56:18;2.80;;;2.60;;
40501;SDS011;29631;49.168;9.848;2023-03-17T00:58:44;3.20;;;3.00;;
40501;SDS011;29631;49.168;9.848;2023-03-17T01:01:11;3.05;;;2.85;;
40501;SDS011;29631;49.168;9.848;2023-03-17T01:03:37;3.03;;;2.83;;
40501;SDS011;29631;49.168;9.848;2023-03-17T01:06:03;3.20;;;2.90;;
40501;SDS011;29631;49.168;9.848;2023-03-17T01:08:32;3.25;;;3.05;;
40501;SDS011;29631;49.168;9.848;2023-03-17T01:10:58;3.35;;;3.05;;
40501;SDS011;29631;49.168;9.848;2023-03-17T01:13:24;2.95;;;2.75;;
40501;SDS011;29631;49.168;9.848;2023-03-17T01:15:50;2.90;;;2.70;;
40501;SDS011;29631;49.168;9.848;2023-03-17T01:18:18;3.35;;;3.15;;
40501;SDS011;29631;49.168;9.848;2023-03-17T01:20:46;2.80;;;2.60;;
40501;SDS011;29631;49.168;9.848;2023-03-17T01:23:13;2.85;;;2.75;;
40501;SDS011;29631;49.168;9.848;2023-03-17T01:25:40;3.10;;;2.90;;
40501;SDS011;29631;49.168;9.848;2023-03-17T01:28:06;3.42;;;3.22;;
40501;SDS011;29631;49.168;9.848;2023-03-17T01:30:37;4.05;;;3.08;;
40501;SDS011;29631;49.168;9.848;2023-03-17T01:33:05;3.28;;;3.08;;
40501;SDS011;29631;49.168;9.848;2023-03-17T01:35:34;3.42;;;3.20;;
40501;SDS011;29631;49.168;9.848;2023-03-17T01:38:02;3.28;;;3.08;;
40501;SDS011;29631;49.168;9.848;2023-03-17T01:40:30;3.53;;;3.30;;
40501;SDS011;29631;49.168;9.848;2023-03-17T01:43:15;3.35;;;3.15;;
40501;SDS011;29631;49.168;9.848;2023-03-17T01:54:28;3.03;;;2.83;;
40501;SDS011;29631;49.168;9.848;2023-03-17T01:57:00;3.47;;;3.28;;
40501;SDS011;29631;49.168;9.848;2023-03-17T02:00:01;5.25;;;3.50;;
40501;SDS011;29631;49.168;9.848;2023-03-17T02:02:36;3.75;;;3.50;;
40501;SDS011;29631;49.168;9.848;2023-03-17T02:05:09;3.00;;;2.80;;
40501;SDS011;29631;49.168;9.848;2023-03-17T02:07:38;3.65;;;3.38;;
40501;SDS011;29631;49.168;9.848;2023-03-17T02:10:05;3.30;;;3.10;;
40501;SDS011;29631;49.168;9.848;2023-03-17T02:12:32;3.80;;;3.50;;
40501;SDS011;29631;49.168;9.848;2023-03-17T02:15:00;3.70;;;3.40;;
40501;SDS011;29631;49.168;9.848;2023-03-17T02:17:27;3.42;;;3.15;;
40501;SDS011;29631;49.168;9.848;2023-03-17T02:19:53;3.22;;;3.00;;
40501;SDS011;29631;49.168;9.848;2023-03-17T02:22:20;3.40;;;3.17;;
40501;SDS011;29631;49.168;9.848;2023-03-17T02:24:47;4.72;;;3.47;;
40501;SDS011;29631;49.168;9.848;2023-03-17T02:27:20;3.40;;;3.20;;
40501;SDS011;29631;49.168;9.848;2023-03-17T02:29:59;3.35;;;3.10;;
40501;SDS011;29631;49.168;9.848;2023-03-17T02:32:25;3.47;;;3.28;;
40501;SDS011;29631;49.168;9.848;2023-03-17T02:34:51;3.47;;;3.10;;
40501;SDS011;29631;49.168;9.848;2023-03-17T02:37:18;3.22;;;3.03;;
40501;SDS011;29631;49.168;9.848;2023-03-17T02:39:44;3.63;;;2.95;;
40501;SDS011;29631;49.168;9.848;2023-03-17T02:42:11;3.63;;;3.33;;
40501;SDS011;29631;49.168;9.848;2023-03-17T02:44:38;4.32;;;3.72;;
40501;SDS011;29631;49.168;9.848;2023-03-17T02:47:04;3.38;;;3.17;;
40501;SDS011;29631;49.168;9.848;2023-03-17T02:49:31;3.40;;;3.15;;
40501;SDS011;29631;49.168;9.848;2023-03-17T02:51:58;3.42;;;3.22;;
40501;SDS011;29631;49.168;9.848;2023-03-17T02:54:24;4.07;;;3.78;;
40501;SDS011;29631;49.168;9.848;2023-03-17T02:56:50;3.75;;;3.55;;
40501;SDS011;29631;49.168;9.848;2023-03-17T02:59:16;3.50;;;3.30;;
40501;SDS011;29631;49.168;9.848;2023-03-17T03:01:41;3.20;;;3.00;;
40501;SDS011;29631;49.168;9.848;2023-03-17T03:04:07;3.25;;;3.05;;
40501;SDS011;29631;49.168;9.848;2023-03-17T03:06:33;3.75;;;3.45;;
40501;SDS011;29631;49.168;9.848;2023-03-17T03:09:00;3.92;;;3.53;;
40501;SDS011;29631;49.168;9.848;2023-03-17T03:11:27;3.75;;;3.45;;
40501;SDS011;29631;49.168;9.848;2023-03-17T03:13:53;3.75;;;3.45;;
40501;SDS011;29631;49.168;9.848;2023-03-17T03:16:20;3.90;;;3.60;;
40501;SDS011;29631;49.168;9.848;2023-03-17T03:18:45;3.72;;;3.42;;
40501;SDS011;29631;49.168;9.848;2023-03-17T03:21:11;3.17;;;2.97;;
40501;SDS011;29631;49.168;9.848;2023-03-17T03:23:37;3.33;;;3.13;;
40501;SDS011;29631;49.168;9.848;2023-03-17T03:26:03;3.33;;;3.10;;
40501;SDS011;29631;49.168;9.848;2023-03-17T03:28:29;3.42;;;3.22;;
40501;SDS011;29631;49.168;9.848;2023-03-17T03:30:56;3.53;;;3.25;;
40501;SDS011;29631;49.168;9.848;2023-03-17T03:33:21;4.30;;;3.90;;
40501;SDS011;29631;49.168;9.848;2023-03-17T03:35:48;3.70;;;3.40;;
40501;SDS011;29631;49.168;9.848;2023-03-17T03:38:14;3.40;;;3.20;;
40501;SDS011;29631;49.168;9.848;2023-03-17T03:40:40;3.67;;;3.47;;
40501;SDS011;29631;49.168;9.848;2023-03-17T03:43:06;3.78;;;3.58;;
40501;SDS011;29631;49.168;9.848;2023-03-17T03:45:32;3.92;;;3.63;;
40501;SDS011;29631;49.168;9.848;2023-03-17T03:47:58;3.30;;;3.10;;
40501;SDS011;29631;49.168;9.848;2023-03-17T03:50:24;3.80;;;3.50;;
40501;SDS011;29631;49.168;9.848;2023-03-17T03:52:49;3.75;;;3.45;;
40501;SDS011;29631;49.168;9.848;2023-03-17T03:55:15;3.17;;;2.97;;
40501;SDS011;29631;49.168;9.848;2023-03-17T03:57:41;3.20;;;3.00;;
40501;SDS011;29631;49.168;9.848;2023-03-17T04:00:08;3.38;;;3.17;;
40501;SDS011;29631;49.168;9.848;2023-03-17T04:02:34;6.97;;;3.42;;
40501;SDS011;29631;49.168;9.848;2023-03-17T04:05:00;3.85;;;3.45;;
40501;SDS011;29631;49.168;9.848;2023-03-17T04:07:27;3.90;;;3.60;;
40501;SDS011;29631;49.168;9.848;2023-03-17T04:09:53;3.63;;;3.33;;
40501;SDS011;29631;49.168;9.848;2023-03-17T04:12:18;3.22;;;3.00;;
40501;SDS011;29631;49.168;9.848;2023-03-17T04:14:44;3.70;;;3.30;;
40501;SDS011;29631;49.168;9.848;2023-03-17T04:17:11;3.63;;;3.25;;
40501;SDS011;29631;49.168;9.848;2023-03-17T04:19:37;3.58;;;3.38;;
40501;SDS011;29631;49.168;9.848;2023-03-17T04:22:03;3.70;;;3.40;;
40501;SDS011;29631;49.168;9.848;2023-03-17T04:24:31;3.42;;;3.17;;
40501;SDS011;29631;49.168;9.848;2023-03-17T04:26:58;3.65;;;3.35;;
40501;SDS011;29631;49.168;9.848;2023-03-17T04:29:25;3.90;;;3.60;;
40501;SDS011;29631;49.168;9.848;2023-03-17T04:31:51;3.40;;;3.20;;
40501;SDS011;29631;49.168;9.848;2023-03-17T04:34:17;3.40;;;3.10;;
40501;SDS011;29631;49.168;9.848;2023-03-17T04:36:44;3.80;;;3.50;;
40501;SDS011;29631;49.168;9.848;2023-03-17T04:39:11;3.38;;;3.17;;
40501;SDS011;29631;49.168;9.848;2023-03-17T04:41:37;3.47;;;3.17;;
40501;SDS011;29631;49.168;9.848;2023-03-17T04:44:03;3.10;;;2.80;;
40501;SDS011;29631;49.168;9.848;2023-03-17T04:46:29;2.97;;;2.78;;
40501;SDS011;29631;49.168;9.848;2023-03-17T04:48:56;3.28;;;3.00;;
40501;SDS011;29631;49.168;9.848;2023-03-17T04:51:22;3.63;;;3.33;;
40501;SDS011;29631;49.168;9.848;2023-03-17T04:53:48;3.55;;;3.35;;
40501;SDS011;29631;49.168;9.848;2023-03-17T04:56:14;3.97;;;3.67;;
40501;SDS011;29631;49.168;9.848;2023-03-17T04:58:40;3.60;;;3.30;;
40501;SDS011;29631;49.168;9.848;2023-03-17T05:01:06;3.80;;;3.50;;
40501;SDS011;29631;49.168;9.848;2023-03-17T05:03:32;3.63;;;3.42;;
40501;SDS011;29631;49.168;9.848;2023-03-17T05:05:59;2.97;;;2.78;;
40501;SDS011;29631;49.168;9.848;2023-03-17T05:08:26;3.47;;;3.28;;
40501;SDS011;29631;49.168;9.848;2023-03-17T05:10:55;3.80;;;3.38;;
40501;SDS011;29631;49.168;9.848;2023-03-17T05:13:22;3.53;;;3.22;;
40501;SDS011;29631;49.168;9.848;2023-03-17T05:15:49;3.05;;;2.85;;
40501;SDS011;29631;49.168;9.848;2023-03-17T05:18:17;3.85;;;3.55;;
40501;SDS011;29631;49.168;9.848;2023-03-17T05:20:44;3.90;;;3.70;;
40501;SDS011;29631;49.168;9.848;2023-03-17T05:23:10;3.55;;;3.35;;
40501;SDS011;29631;49.168;9.848;2023-03-17T05:25:36;4.85;;;3.50;;
40501;SDS011;29631;49.168;9.848;2023-03-17T05:28:02;3.67;;;3.47;;
40501;SDS011;29631;49.168;9.848;2023-03-17T05:30:28;3.95;;;3.65;;
40501;SDS011;29631;49.168;9.848;2023-03-17T05:32:54;3.60;;;3.30;;
40501;SDS011;29631;49.168;9.848;2023-03-17T05:35:20;3.60;;;3.40;;
40501;SDS011;29631;49.168;9.848;2023-03-17T05:37:46;3.45;;;3.25;;
40501;SDS011;29631;49.168;9.848;2023-03-17T05:40:12;4.15;;;3.78;;
40501;SDS011;29631;49.168;9.848;2023-03-17T05:42:41;3.60;;;3.35;;
40501;SDS011;29631;49.168;9.848;2023-03-17T05:45:07;3.58;;;3.38;;
40501;SDS011;29631;49.168;9.848;2023-03-17T05:47:33;3.75;;;3.45;;
40501;SDS011;29631;49.168;9.848;2023-03-17T05:50:00;3.63;;;3.42;;
40501;SDS011;29631;49.168;9.848;2023-03-17T05:52:28;3.92;;;3.63;;
40501;SDS011;29631;49.168;9.848;2023-03-17T05:54:55;3.95;;;3.65;;
40501;SDS011;29631;49.168;9.848;2023-03-17T05:57:21;3.85;;;3.55;;
40501;SDS011;29631;49.168;9.848;2023-03-17T05:59:47;3.65;;;3.30;;
40501;SDS011;29631;49.168;9.848;2023-03-17T06:02:14;3.70;;;3.40;;
40501;SDS011;29631;49.168;9.848;2023-03-17T06:04:40;3.22;;;3.03;;
40501;SDS011;29631;49.168;9.848;2023-03-17T06:07:07;3.55;;;3.25;;
40501;SDS011;29631;49.168;9.848;2023-03-17T06:09:34;3.30;;;3.00;;
40501;SDS011;29631;49.168;9.848;2023-03-17T06:12:00;3.83;;;3.53;;
40501;SDS011;29631;49.168;9.848;2023-03-17T06:14:26;3.15;;;2.95;;
40501;SDS011;29631;49.168;9.848;2023-03-17T06:16:52;3.88;;;3.58;;
40501;SDS011;29631;49.168;9.848;2023-03-17T06:19:18;3.80;;;3.50;;
40501;SDS011;29631;49.168;9.848;2023-03-17T06:21:44;4.28;;;3.60;;
40501;SDS011;29631;49.168;9.848;2023-03-17T06:24:10;4.97;;;3.13;;
40501;SDS011;29631;49.168;9.848;2023-03-17T06:26:36;4.15;;;3.17;;
40501;SDS011;29631;49.168;9.848;2023-03-17T06:29:05;3.65;;;3.10;;
40501;SDS011;29631;49.168;9.848;2023-03-17T06:31:35;3.38;;;3.08;;
40501;SDS011;29631;49.168;9.848;2023-03-17T06:34:03;3.25;;;3.05;;
40501;SDS011;29631;49.168;9.848;2023-03-17T06:36:29;3.97;;;3.40;;
40501;SDS011;29631;49.168;9.848;2023-03-17T06:38:56;3.67;;;3.42;;
40501;SDS011;29631;49.168;9.848;2023-03-17T06:41:23;3.03;;;2.75;;
40501;SDS011;29631;49.168;9.848;2023-03-17T06:43:49;3.67;;;3.42;;
40501;SDS011;29631;49.168;9.848;2023-03-17T06:46:15;3.13;;;2.92;;
40501;SDS011;29631;49.168;9.848;2023-03-17T06:48:41;4.00;;;3.70;;
40501;SDS011;29631;49.168;9.848;2023-03-17T06:51:07;3.75;;;3.45;;
40501;SDS011;29631;49.168;9.848;2023-03-17T06:53:34;3.20;;;3.00;;
40501;SDS011;29631;49.168;9.848;2023-03-17T06:56:00;3.30;;;3.10;;
40501;SDS011;29631;49.168;9.848;2023-03-17T06:58:26;3.50;;;3.30;;
40501;SDS011;29631;49.168;9.848;2023-03-17T07:00:51;3.55;;;3.25;;
40501;SDS011;29631;49.168;9.848;2023-03-17T07:03:18;3.28;;;3.08;;
40501;SDS011;29631;49.168;9.848;2023-03-17T07:05:46;3.00;;;2.80;;
40501;SDS011;29631;49.168;9.848;2023-03-17T07:08:12;3.60;;;3.40;;
40501;SDS011;29631;49.168;9.848;2023-03-17T07:10:40;3.42;;;3.22;;
40501;SDS011;29631;49.168;9.848;2023-03-17T07:13:07;3.58;;;3.38;;
40501;SDS011;29631;49.168;9.848;2023-03-17T07:15:34;3.25;;;3.00;;
40501;SDS011;29631;49.168;9.848;2023-03-17T07:18:01;3.22;;;3.03;;
40501;SDS011;29631;49.168;9.848;2023-03-17T07:20:28;3.13;;;2.83;;
40501;SDS011;29631;49.168;9.848;2023-03-17T07:22:55;3.53;;;3.22;;
40501;SDS011;29631;49.168;9.848;2023-03-17T07:25:21;3.10;;;2.90;;
40501;SDS011;29631;49.168;9.848;2023-03-17T07:27:48;3.38;;;3.08;;
40501;SDS011;29631;49.168;9.848;2023-03-17T07:30:14;3.40;;;3.10;;
40501;SDS011;29631;49.168;9.848;2023-03-17T07:32:43;3.20;;;3.00;;
40501;SDS011;29631;49.168;9.848;2023-03-17T07:35:10;3.17;;;2.97;;
40501;SDS011;29631;49.168;9.848;2023-03-17T07:37:36;3.67;;;3.38;;
40501;SDS011;29631;49.168;9.848;2023-03-17T07:40:02;3.72;;;3.42;;
40501;SDS011;29631;49.168;9.848;2023-03-17T07:42:30;3.15;;;2.95;;
40501;SDS011;29631;49.168;9.848;2023-03-17T07:44:56;3.58;;;3.30;;
40501;SDS011;29631;49.168;9.848;2023-03-17T07:47:22;3.35;;;3.15;;
40501;SDS011;29631;49.168;9.848;2023-03-17T07:49:48;3.10;;;2.90;;
40501;SDS011;29631;49.168;9.848;2023-03-17T07:52:14;3.08;;;2.90;;
40501;SDS011;29631;49.168;9.848;2023-03-17T07:54:39;3.92;;;3.47;;
40501;SDS011;29631;49.168;9.848;2023-03-17T07:57:05;3.90;;;3.60;;
40501;SDS011;29631;49.168;9.848;2023-03-17T07:59:31;3.50;;;3.30;;
40501;SDS011;29631;49.168;9.848;2023-03-17T08:01:58;3.15;;;2.95;;
40501;SDS011;29631;49.168;9.848;2023-03-17T08:04:25;3.28;;;3.08;;
40501;SDS011;29631;49.168;9.848;2023-03-17T08:06:54;3.30;;;3.10;;
40501;SDS011;29631;49.168;9.848;2023-03-17T08:09:21;5.38;;;3.47;;
40501;SDS011;29631;49.168;9.848;2023-03-17T08:11:47;3.20;;;3.00;;
40501;SDS011;29631;49.168;9.848;2023-03-17T08:14:13;3.75;;;3.45;;
40501;SDS011;29631;49.168;9.848;2023-03-17T08:16:39;3.30;;;3.10;;
40501;SDS011;29631;49.168;9.848;2023-03-17T08:19:05;3.00;;;2.70;;
40501;SDS011;29631;49.168;9.848;2023-03-17T08:21:31;3.03;;;2.83;;
40501;SDS011;29631;49.168;9.848;2023-03-17T08:23:57;3.33;;;3.13;;
40501;SDS011;29631;49.168;9.848;2023-03-17T08:26:23;3.33;;;3.03;;
40501;SDS011;29631;49.168;9.848;2023-03-17T08:28:49;3.40;;;3.20;;
40501;SDS011;29631;49.168;9.848;2023-03-17T08:31:16;3.13;;;2.92;;
40501;SDS011;29631;49.168;9.848;2023-03-17T08:33:45;3.15;;;2.95;;
40501;SDS011;29631;49.168;9.848;2023-03-17T08:36:14;2.85;;;2.70;;
40501;SDS011;29631;49.168;9.848;2023-03-17T08:38:40;3.25;;;3.05;;
40501;SDS011;29631;49.168;9.848;2023-03-17T08:41:08;3.38;;;3.17;;
40501;SDS011;29631;49.168;9.848;2023-03-17T08:43:37;3.40;;;3.20;;
40501;SDS011;29631;49.168;9.848;2023-03-17T08:46:27;2.90;;;2.70;;
40501;SDS011;29631;49.168;9.848;2023-03-17T08:48:54;3.20;;;2.95;;
40501;SDS011;29631;49.168;9.848;2023-03-17T08:51:23;3.03;;;2.83;;
40501;SDS011;29631;49.168;9.848;2023-03-17T08:53:53;3.35;;;3.05;;
40501;SDS011;29631;49.168;9.848;2023-03-17T08:56:19;3.42;;;3.22;;
40501;SDS011;29631;49.168;9.848;2023-03-17T08:58:46;3.83;;;2.88;;
40501;SDS011;29631;49.168;9.848;2023-03-17T09:01:13;2.90;;;2.70;;
40501;SDS011;29631;49.168;9.848;2023-03-17T09:03:39;3.10;;;2.90;;
40501;SDS011;29631;49.168;9.848;2023-03-17T09:06:06;2.65;;;2.55;;
40501;SDS011;29631;49.168;9.848;2023-03-17T09:08:35;3.28;;;3.08;;
40501;SDS011;29631;49.168;9.848;2023-03-17T09:11:04;3.15;;;2.95;;
40501;SDS011;29631;49.168;9.848;2023-03-17T09:13:31;3.75;;;2.75;;
40501;SDS011;29631;49.168;9.848;2023-03-17T09:15:58;2.38;;;2.28;;
40501;SDS011;29631;49.168;9.848;2023-03-17T09:18:25;3.50;;;2.80;;
40501;SDS011;29631;49.168;9.848;2023-03-17T09:20:51;2.70;;;2.50;;
40501;SDS011;29631;49.168;9.848;2023-03-17T09:23:17;2.67;;;2.47;;
40501;SDS011;29631;49.168;9.848;2023-03-17T09:25:43;2.97;;;2.80;;
40501;SDS011;29631;49.168;9.848;2023-03-17T09:28:12;2.78;;;2.65;;
40501;SDS011;29631;49.168;9.848;2023-03-17T09:30:41;2.88;;;2.70;;
40501;SDS011;29631;49.168;9.848;2023-03-17T09:33:08;2.85;;;2.70;;
40501;SDS011;29631;49.168;9.848;2023-03-17T09:35:36;2.70;;;2.55;;
40501;SDS011;29631;49.168;9.848;2023-03-17T09:38:02;2.63;;;2.53;;
40501;SDS011;29631;49.168;9.848;2023-03-17T09:41:16;2.63;;;2.42;;
40501;SDS011;29631;49.168;9.848;2023-03-17T09:46:45;2.38;;;2.28;;
40501;SDS011;29631;49.168;9.848;2023-03-17T09:49:43;2.30;;;2.10;;
40501;SDS011;29631;49.168;9.848;2023-03-17T09:52:17;2.63;;;2.20;;
40501;SDS011;29631;49.168;9.848;2023-03-17T09:54:52;2.67;;;2.40;;
40501;SDS011;29631;49.168;9.848;2023-03-17T09:57:20;2.22;;;2.03;;
40501;SDS011;29631;49.168;9.848;2023-03-17T09:59:51;2.40;;;2.20;;
40501;SDS011;29631;49.168;9.848;2023-03-17T10:02:47;2.00;;;1.90;;
40501;SDS011;29631;49.168;9.848;2023-03-17T10:07:48;2.45;;;2.20;;
40501;SDS011;29631;49.168;9.848;2023-03-17T10:16:11;1.73;;;1.63;;
40501;SDS011;29631;49.168;9.848;2023-03-17T10:18:45;2.08;;;1.85;;
40501;SDS011;29631;49.168;9.848;2023-03-17T10:21:17;2.25;;;2.15;;
40501;SDS011;29631;49.168;9.848;2023-03-17T10:23:49;2.47;;;2.38;;
40501;SDS011;29631;49.168;9.848;2023-03-17T10:26:25;1.67;;;1.58;;
40501;SDS011;29631;49.168;9.848;2023-03-17T10:29:20;1.88;;;1.77;;
40501;SDS011;29631;49.168;9.848;2023-03-17T10:31:48;1.50;;;1.50;;
40501;SDS011;29631;49.168;9.848;2023-03-17T10:34:17;2.00;;;1.90;;
40501;SDS011;29631;49.168;9.848;2023-03-17T10:37:05;1.60;;;1.50;;
40501;SDS011;29631;49.168;9.848;2023-03-17T10:39:46;1.85;;;1.75;;
40501;SDS011;29631;49.168;9.848;2023-03-17T10:42:24;5.55;;;2.10;;
40501;SDS011;29631;49.168;9.848;2023-03-17T10:52:41;1.67;;;1.58;;
40501;SDS011;29631;49.168;9.848;2023-03-17T10:55:07;1.75;;;1.65;;
40501;SDS011;29631;49.168;9.848;2023-03-17T10:57:38;1.55;;;1.55;;
40501;SDS011;29631;49.168;9.848;2023-03-17T11:00:15;3.47;;;1.60;;
40501;SDS011;29631;49.168;9.848;2023-03-17T11:02:47;2.08;;;1.67;;
40501;SDS011;29631;49.168;9.848;2023-03-17T11:05:26;1.67;;;1.58;;
40501;SDS011;29631;49.168;9.848;2023-03-17T11:07:57;1.48;;;1.48;;
40501;SDS011;29631;49.168;9.848;2023-03-17T11:10:42;1.58;;;1.48;;
40501;SDS011;29631;49.168;9.848;2023-03-17T11:13:09;1.88;;;1.83;;
40501;SDS011;29631;49.168;9.848;2023-03-17T11:15:42;2.10;;;1.60;;
40501;SDS011;29631;49.168;9.848;2023-03-17T11:18:22;1.20;;;1.20;;
40501;SDS011;29631;49.168;9.848;2023-03-17T11:21:00;1.80;;;1.52;;
40501;SDS011;29631;49.168;9.848;2023-03-17T11:32:24;1.20;;;1.20;;
40501;SDS011;29631;49.168;9.848;2023-03-17T11:35:21;1.50;;;1.40;;
40501;SDS011;29631;49.168;9.848;2023-03-17T11:50:02;1.60;;;1.50;;
40501;SDS011;29631;49.168;9.848;2023-03-17T11:56:02;1.10;;;1.10;;
40501;SDS011;29631;49.168;9.848;2023-03-17T11:59:00;1.30;;;1.27;;
40501;SDS011;29631;49.168;9.848;2023-03-17T12:01:38;1.20;;;1.15;;
40501;SDS011;29631;49.168;9.848;2023-03-17T12:04:28;1.40;;;1.35;;
40501;SDS011;29631;49.168;9.848;2023-03-17T12:07:04;1.40;;;1.27;;
40501;SDS011;29631;49.168;9.848;2023-03-17T12:10:46;1.25;;;1.08;;
40501;SDS011;29631;49.168;9.848;2023-03-17T12:15:44;1.10;;;1.10;;
40501;SDS011;29631;49.168;9.848;2023-03-17T12:24:01;1.15;;;1.10;;
40501;SDS011;29631;49.168;9.848;2023-03-17T12:27:12;1.25;;;1.10;;
40501;SDS011;29631;49.168;9.848;2023-03-17T12:29:59;1.73;;;1.02;;
40501;SDS011;29631;49.168;9.848;2023-03-17T12:32:42;1.50;;;1.33;;
40501;SDS011;29631;49.168;9.848;2023-03-17T12:35:31;0.98;;;0.98;;
40501;SDS011;29631;49.168;9.848;2023-03-17T12:38:05;1.17;;;1.17;;
40501;SDS011;29631;49.168;9.848;2023-03-17T12:41:09;1.00;;;1.00;;
40501;SDS011;29631;49.168;9.848;2023-03-17T12:52:59;1.02;;;1.02;;
40501;SDS011;29631;49.168;9.848;2023-03-17T12:55:48;1.20;;;1.10;;
40501;SDS011;29631;49.168;9.848;2023-03-17T13:21:07;1.25;;;1.00;;
40501;SDS011;29631;49.168;9.848;2023-03-17T13:23:41;0.85;;;0.85;;
40501;SDS011;29631;49.168;9.848;2023-03-17T13:26:13;1.30;;;1.30;;
40501;SDS011;29631;49.168;9.848;2023-03-17T13:28:45;1.30;;;1.20;;
40501;SDS011;29631;49.168;9.848;2023-03-17T13:31:27;1.88;;;1.13;;
40501;SDS011;29631;49.168;9.848;2023-03-17T13:34:09;1.08;;;0.98;;
40501;SDS011;29631;49.168;9.848;2023-03-17T13:45:43;1.30;;;1.15;;
40501;SDS011;29631;49.168;9.848;2023-03-17T13:59:09;1.40;;;1.30;;
40501;SDS011;29631;49.168;9.848;2023-03-17T14:01:40;1.20;;;1.10;;
40501;SDS011;29631;49.168;9.848;2023-03-17T14:04:27;1.30;;;1.30;;
40501;SDS011;29631;49.168;9.848;2023-03-17T14:07:04;1.25;;;1.15;;
40501;SDS011;29631;49.168;9.848;2023-03-17T14:09:40;1.23;;;1.17;;
40501;SDS011;29631;49.168;9.848;2023-03-17T14:12:18;1.20;;;1.02;;
40501;SDS011;29631;49.168;9.848;2023-03-17T14:15:04;1.60;;;1.30;;
40501;SDS011;29631;49.168;9.848;2023-03-17T14:17:47;2.88;;;1.25;;
40501;SDS011;29631;49.168;9.848;2023-03-17T14:20:23;2.53;;;1.30;;
40501;SDS011;29631;49.168;9.848;2023-03-17T14:22:55;2.78;;;1.40;;
40501;SDS011;29631;49.168;9.848;2023-03-17T14:25:25;1.08;;;1.08;;
40501;SDS011;29631;49.168;9.848;2023-03-17T14:28:03;2.40;;;1.20;;
40501;SDS011;29631;49.168;9.848;2023-03-17T14:30:32;1.27;;;1.27;;
40501;SDS011;29631;49.168;9.848;2023-03-17T14:35:37;1.42;;;1.25;;
40501;SDS011;29631;49.168;9.848;2023-03-17T14:38:19;1.20;;;1.20;;
40501;SDS011;29631;49.168;9.848;2023-03-17T14:40:47;1.30;;;1.20;;
40501;SDS011;29631;49.168;9.848;2023-03-17T14:43:15;2.20;;;1.10;;
40501;SDS011;29631;49.168;9.848;2023-03-17T14:45:58;0.90;;;0.90;;
40501;SDS011;29631;49.168;9.848;2023-03-17T14:48:26;1.40;;;1.25;;
40501;SDS011;29631;49.168;9.848;2023-03-17T14:50:57;1.20;;;1.10;;
40501;SDS011;29631;49.168;9.848;2023-03-17T14:53:32;1.20;;;1.13;;
40501;SDS011;29631;49.168;9.848;2023-03-17T14:56:00;1.08;;;1.08;;
40501;SDS011;29631;49.168;9.848;2023-03-17T14:58:42;1.20;;;1.20;;
40501;SDS011;29631;49.168;9.848;2023-03-17T15:04:11;1.10;;;1.10;;
40501;SDS011;29631;49.168;9.848;2023-03-17T15:07:01;1.30;;;1.20;;
40501;SDS011;29631;49.168;9.848;2023-03-17T15:14:34;1.45;;;1.35;;
40501;SDS011;29631;49.168;9.848;2023-03-17T15:17:04;1.85;;;1.40;;
40501;SDS011;29631;49.168;9.848;2023-03-17T15:19:43;1.17;;;1.17;;
40501;SDS011;29631;49.168;9.848;2023-03-17T15:22:25;1.40;;;1.30;;
40501;SDS011;29631;49.168;9.848;2023-03-17T15:27:50;1.40;;;1.30;;
40501;SDS011;29631;49.168;9.848;2023-03-17T15:30:17;1.30;;;1.20;;
40501;SDS011;29631;49.168;9.848;2023-03-17T15:32:43;1.27;;;1.20;;
40501;SDS011;29631;49.168;9.848;2023-03-17T15:35:15;2.03;;;1.40;;
40501;SDS011;29631;49.168;9.848;2023-03-17T15:37:41;1.40;;;1.30;;
40501;SDS011;29631;49.168;9.848;2023-03-17T15:40:07;1.67;;;1.40;;
40501;SDS011;29631;49.168;9.848;2023-03-17T15:42:35;1.60;;;1.50;;
40501;SDS011;29631;49.168;9.848;2023-03-17T15:45:03;1.75;;;1.65;;
40501;SDS011;29631;49.168;9.848;2023-03-17T15:47:31;1.60;;;1.50;;
40501;SDS011;29631;49.168;9.848;2023-03-17T15:50:05;1.40;;;1.30;;
40501;SDS011;29631;49.168;9.848;2023-03-17T15:52:38;1.50;;;1.40;;
40501;SDS011;29631;49.168;9.848;2023-03-17T15:55:05;1.35;;;1.30;;
40501;SDS011;29631;49.168;9.848;2023-03-17T15:57:39;1.30;;;1.30;;
40501;SDS011;29631;49.168;9.848;2023-03-17T16:00:05;1.80;;;1.70;;
40501;SDS011;29631;49.168;9.848;2023-03-17T16:02:33;2.15;;;1.58;;
40501;SDS011;29631;49.168;9.848;2023-03-17T16:05:01;1.42;;;1.42;;
40501;SDS011;29631;49.168;9.848;2023-03-17T16:07:38;1.50;;;1.40;;
40501;SDS011;29631;49.168;9.848;2023-03-17T16:10:13;1.63;;;1.52;;
40501;SDS011;29631;49.168;9.848;2023-03-17T16:12:54;1.55;;;1.52;;
40501;SDS011;29631;49.168;9.848;2023-03-17T16:15:20;1.80;;;1.70;;
40501;SDS011;29631;49.168;9.848;2023-03-17T16:17:53;1.60;;;1.30;;
40501;SDS011;29631;49.168;9.848;2023-03-17T16:25:38;1.52;;;1.45;;
40501;SDS011;29631;49.168;9.848;2023-03-17T16:28:26;1.35;;;1.35;;
40501;SDS011;29631;49.168;9.848;2023-03-17T16:30:55;1.40;;;1.40;;
40501;SDS011;29631;49.168;9.848;2023-03-17T16:33:24;1.58;;;1.58;;
40501;SDS011;29631;49.168;9.848;2023-03-17T16:35:57;1.42;;;1.33;;
40501;SDS011;29631;49.168;9.848;2023-03-17T16:38:26;2.85;;;1.45;;
40501;SDS011;29631;49.168;9.848;2023-03-17T16:40:57;1.58;;;1.52;;
40501;SDS011;29631;49.168;9.848;2023-03-17T16:43:38;1.55;;;1.55;;
40501;SDS011;29631;49.168;9.848;2023-03-17T16:46:08;1.60;;;1.50;;
40501;SDS011;29631;49.168;9.848;2023-03-17T16:48:35;1.48;;;1.25;;
40501;SDS011;29631;49.168;9.848;2023-03-17T16:51:01;2.80;;;1.40;;
40501;SDS011;29631;49.168;9.848;2023-03-17T16:53:28;2.10;;;1.45;;
40501;SDS011;29631;49.168;9.848;2023-03-17T16:55:54;1.17;;;1.17;;
40501;SDS011;29631;49.168;9.848;2023-03-17T16:58:25;1.95;;;1.58;;
40501;SDS011;29631;49.168;9.848;2023-03-17T17:01:02;1.83;;;1.30;;
40501;SDS011;29631;49.168;9.848;2023-03-17T17:03:35;1.30;;;1.20;;
40501;SDS011;29631;49.168;9.848;2023-03-17T17:06:02;3.08;;;1.30;;
40501;SDS011;29631;49.168;9.848;2023-03-17T17:08:29;1.17;;;1.17;;
40501;SDS011;29631;49.168;9.848;2023-03-17T17:10:55;3.42;;;1.33;;
40501;SDS011;29631;49.168;9.848;2023-03-17T17:13:21;1.25;;;1.17;;
40501;SDS011;29631;49.168;9.848;2023-03-17T17:15:47;1.30;;;1.30;;
40501;SDS011;29631;49.168;9.848;2023-03-17T17:18:14;1.40;;;1.30;;